createdAt,value
2022-10-05T00:02:06.110Z,108.26667
2022-10-05T00:07:07.830Z,106.96296
2022-10-05T00:12:09.757Z,107.82979
2022-10-05T00:17:11.380Z,109.14745
2022-10-05T00:22:12.819Z,111.84741
2022-10-05T00:27:14.483Z,116.06704
2022-10-05T00:32:16.147Z,115.11111
2022-10-05T00:37:17.779Z,115.11111
2022-10-05T00:42:19.665Z,115.58774
2022-10-05T00:47:21.340Z,113.69697
2022-10-05T00:52:23.069Z,111.84741
2022-10-05T00:57:24.880Z,111.3913
2022-10-05T01:02:26.796Z,112.76712
2022-10-05T01:07:28.492Z,110.93767
2022-10-05T01:12:30.432Z,106.96296
2022-10-05T01:17:32.153Z,109.5914
2022-10-05T01:22:33.902Z,111.3913
2022-10-05T01:27:35.672Z,110.48649
2022-10-05T01:32:37.399Z,111.3913
2022-10-05T01:37:39.134Z,108.26667
2022-10-05T01:42:41.097Z,110.93767
2022-10-05T01:47:42.851Z,112.76712
2022-10-05T01:52:44.410Z,114.16575
2022-10-05T01:57:46.152Z,115.11111
2022-10-05T02:02:47.618Z,114.16575
2022-10-05T02:07:49.382Z,114.63712
2022-10-05T02:12:51.042Z,112.30601
2022-10-05T02:17:53.541Z,110.48649
2022-10-05T02:22:54.975Z,110.48649
2022-10-05T02:27:56.624Z,109.5914
2022-10-05T02:32:58.102Z,110.48649
2022-10-05T02:37:59.607Z,109.5914
2022-10-05T02:43:01.263Z,109.5914
2022-10-05T02:48:02.832Z,110.48649
2022-10-05T02:53:04.329Z,110.93767
2022-10-05T02:58:05.972Z,114.16575
2022-10-05T03:03:07.417Z,114.63712
2022-10-05T03:08:09.186Z,116.06704
2022-10-05T03:13:10.971Z,116.54902
2022-10-05T03:18:12.481Z,115.58774
2022-10-05T03:23:13.947Z,113.69697
2022-10-05T03:28:15.673Z,115.11111
2022-10-05T03:33:17.291Z,115.58774
2022-10-05T03:38:18.734Z,115.11111
2022-10-05T03:43:20.398Z,116.06704
2022-10-05T03:48:21.919Z,115.58774
2022-10-05T03:53:23.444Z,114.63712
2022-10-05T03:58:24.891Z,113.69697
2022-10-05T04:03:26.364Z,111.84741
2022-10-05T04:08:27.826Z,109.14745
2022-10-05T04:13:29.594Z,104.41667
2022-10-05T04:18:31.069Z,100.743
2022-10-05T04:23:32.803Z,101.94872
2022-10-05T04:28:34.687Z,102.35476
2022-10-05T04:33:36.546Z,104.83551
2022-10-05T04:38:38.341Z,104.41667
2022-10-05T04:43:40.311Z,103.58549
2022-10-05T04:48:42.087Z,100.743
2022-10-05T04:53:43.777Z,102.76289
2022-10-05T04:58:45.287Z,108.26667
2022-10-05T05:03:46.954Z,109.5914
2022-10-05T05:08:49.106Z,109.5914
2022-10-05T05:13:50.751Z,113.69697
2022-10-05T05:18:52.206Z,114.16575
2022-10-05T05:23:53.760Z,116.06704
2022-10-05T05:28:55.232Z,119.49858
2022-10-05T05:33:56.687Z,121.01149
2022-10-05T05:38:58.239Z,131.80488
2022-10-05T05:44:00.070Z,128.43114
2022-10-05T05:49:01.920Z,132.95706
2022-10-05T05:54:03.451Z,131.23404
2022-10-05T05:59:04.885Z,130.10272
2022-10-05T06:04:06.300Z,130.66667
2022-10-05T06:09:07.758Z,139.55556
2022-10-05T06:14:09.441Z,140.80511
2022-10-05T06:19:10.914Z,146.63158
2022-10-05T06:24:12.380Z,137.71069
2022-10-05T06:29:13.934Z,152.10811
2022-10-05T06:34:15.528Z,152.10811
2022-10-05T06:39:17.099Z,157.88889
2022-10-05T06:44:18.856Z,172.14815
2022-10-05T06:49:20.335Z,194.4065
2022-10-05T06:54:21.918Z,191.38956
2022-10-05T06:59:23.474Z,190.4
2022-10-05T07:04:24.996Z,201.74059
2022-10-05T07:09:26.527Z,199.60166
2022-10-05T07:14:28.299Z,211.82609
2022-10-05T07:19:29.802Z,214.17544
2022-10-05T07:24:31.573Z,222.73303
2022-10-05T07:29:33.333Z,216.56637
2022-10-05T07:34:35.076Z,226.56881
2022-10-05T07:39:59.261Z,229.18519
2022-10-05T07:45:01.999Z,245.96078
2022-10-05T07:50:03.624Z,258.28571
2022-10-05T07:55:05.260Z,255.11111
2022-10-05T08:00:07.044Z,244.4878
2022-10-05T08:05:08.788Z,250.46766
2022-10-05T08:10:10.543Z,248.9505
2022-10-05T08:15:13.062Z,266.51309
2022-10-05T08:20:14.771Z,261.52577
2022-10-05T08:25:16.503Z,278.78261
2022-10-05T08:30:18.369Z,288.13408
2022-10-05T08:35:20.109Z,300.06936
2022-10-05T08:40:21.841Z,275.1828
2022-10-05T08:45:23.811Z,276.97297
2022-10-05T08:50:25.552Z,296
2022-10-05T08:55:27.277Z,292.0226
2022-10-05T09:00:29.406Z,341.41935
2022-10-05T09:05:31.166Z,315.08434
2022-10-05T09:10:32.977Z,326.6087
2022-10-05T09:15:35.492Z,341.41935
2022-10-05T09:20:37.280Z,377.80282
2022-10-05T09:25:39.070Z,371.77778
2022-10-05T09:30:40.968Z,336.35669
2022-10-05T09:35:42.632Z,333.87342
2022-10-05T09:40:44.353Z,365.91781
2022-10-05T09:45:46.946Z,390.37681
2022-10-05T09:50:48.429Z,363.04762
2022-10-05T09:55:49.933Z,371.77778
2022-10-05T10:00:59.435Z,400.2963
2022-10-05T10:06:10.885Z,390.37681
2022-10-05T10:11:12.380Z,360.21622
2022-10-05T10:16:14.212Z,387.16547
2022-10-05T10:21:15.732Z,374.76923
2022-10-05T10:26:17.247Z,393.63504
2022-10-05T10:31:18.925Z,417.84615
2022-10-05T10:36:20.522Z,384
2022-10-05T10:41:22.021Z,400.2963
2022-10-05T10:46:23.791Z,432.88889
2022-10-05T10:51:25.326Z,440.77419
2022-10-05T10:56:26.798Z,440.77419
2022-10-05T11:01:28.329Z,504
2022-10-05T11:06:29.878Z,547.92157
2022-10-05T11:11:31.551Z,470.49573
2022-10-05T11:16:34.001Z,489.13274
2022-10-05T11:21:35.541Z,484.35088
2022-10-05T11:26:36.998Z,514.37037
2022-10-05T11:31:38.565Z,572.57143
2022-10-05T11:36:40.175Z,536.30769
2022-10-05T11:41:41.793Z,553.90099
2022-10-05T11:46:43.583Z,553.90099
2022-10-05T11:51:45.479Z,553.90099
2022-10-05T11:56:50.706Z,514.37037
2022-10-05T12:01:55.396Z,479.65217
2022-10-05T12:06:56.852Z,547.92157
2022-10-05T12:11:58.449Z,530.66667
2022-10-05T12:17:00.619Z,566.22222
2022-10-05T12:22:02.110Z,620.92308
2022-10-05T12:27:03.891Z,620.92308
2022-10-05T12:32:05.687Z,644
2022-10-05T12:37:07.438Z,553.90099
2022-10-05T12:42:09.177Z,457.33333
2022-10-05T12:47:11.936Z,479.65217
2022-10-05T12:52:13.840Z,553.90099
2022-10-05T12:57:15.624Z,560
2022-10-05T13:02:17.531Z,566.22222
2022-10-05T13:07:19.288Z,579.05155
2022-10-05T13:12:20.968Z,599.31915
2022-10-05T13:17:22.882Z,489.13274
2022-10-05T13:22:24.597Z,519.70093
2022-10-05T13:27:26.302Z,504
2022-10-05T13:32:28.036Z,566.22222
2022-10-05T13:37:29.693Z,494
2022-10-05T13:42:31.331Z,470.49573
2022-10-05T13:47:34.137Z,560
2022-10-05T13:52:35.884Z,613.56522
2022-10-05T13:57:37.566Z,592.42105
2022-10-05T14:02:39.258Z,592.42105
2022-10-05T14:07:41.007Z,585.66667
2022-10-05T14:12:42.642Z,457.33333
2022-10-05T14:17:44.748Z,470.49573
2022-10-05T14:22:46.168Z,652.04598
2022-10-05T14:27:47.923Z,542.05825
2022-10-05T14:32:49.580Z,636.13483
2022-10-05T14:37:51.114Z,585.66667
2022-10-05T14:42:52.718Z,620.92308
2022-10-05T14:47:54.451Z,644
2022-10-05T14:52:55.962Z,560
2022-10-05T14:57:57.433Z,504
2022-10-05T15:02:58.969Z,479.65217
2022-10-05T15:08:00.398Z,429.03937
2022-10-05T15:13:02.064Z,489.13274
2022-10-05T15:18:04.043Z,519.70093
2022-10-05T15:23:05.684Z,560
2022-10-05T15:28:07.479Z,466.0339
2022-10-05T15:33:09.367Z,425.25
2022-10-05T15:38:11.149Z,363.04762
2022-10-05T15:43:12.883Z,453.09091
2022-10-05T15:48:15.372Z,479.65217
2022-10-05T15:53:17.093Z,374.76923
2022-10-05T15:58:18.825Z,319.60976
2022-10-05T16:03:20.653Z,217.77778
2022-10-05T16:08:22.653Z,271.65957
2022-10-05T16:13:24.628Z,241.58454
2022-10-05T16:18:27.305Z,250.46766
2022-10-05T16:23:28.936Z,266.51309
2022-10-05T16:28:30.712Z,292.0226
2022-10-05T16:33:32.519Z,250.46766
2022-10-05T16:38:34.291Z,244.4878
2022-10-05T16:43:35.821Z,235.94313
2022-10-05T16:48:37.760Z,230.51163
2022-10-05T16:53:39.521Z,233.20188
2022-10-05T16:58:41.256Z,220.23318
2022-10-05T17:03:43.169Z,216.56637
2022-10-05T17:08:45.047Z,230.51163
2022-10-05T17:13:46.774Z,225.27854
2022-10-05T17:18:48.439Z,227.87097
2022-10-05T17:23:49.923Z,227.87097
2022-10-05T17:28:51.542Z,214.17544
2022-10-05T17:33:53.157Z,200.66667
2022-10-05T17:38:54.905Z,199.60166
2022-10-05T17:43:56.637Z,202.82353
2022-10-05T17:48:58.438Z,205.01695
2022-10-05T17:53:59.935Z,216.56637
2022-10-05T17:59:01.874Z,222.73303
2022-10-05T18:04:03.684Z,215.36564
2022-10-05T18:09:05.398Z,201.74059
2022-10-05T18:14:07.134Z,207.24786
2022-10-05T18:19:08.944Z,181.83784
2022-10-05T18:24:10.690Z,210.66667
2022-10-05T18:29:12.510Z,217.77778
2022-10-05T18:34:13.980Z,216.56637
2022-10-05T18:39:15.809Z,212.99563
2022-10-05T18:44:17.457Z,209.51724
2022-10-05T18:49:19.632Z,202.82353
2022-10-05T18:54:21.358Z,192.3871
2022-10-05T18:59:23.134Z,185.56863
2022-10-05T19:04:25.072Z,184.625
2022-10-05T19:09:26.792Z,191.38956
2022-10-05T19:14:28.466Z,180.92308
2022-10-05T19:19:33.502Z,178.22053
2022-10-05T19:24:35.440Z,169.64103
2022-10-05T19:29:37.089Z,163.21708
2022-10-05T19:34:38.573Z,178.22053
2022-10-05T19:39:40.225Z,172.99628
2022-10-05T19:44:41.687Z,162.43972
2022-10-05T19:49:43.565Z,160.90141
2022-10-05T19:54:45.257Z,157.14879
2022-10-05T19:59:46.889Z,154.9589
2022-10-05T20:04:48.492Z,146.63158
2022-10-05T20:09:50.397Z,146.63158
2022-10-05T20:14:54.994Z,139.55556
2022-10-05T20:19:59.071Z,134.71207
2022-10-05T20:25:00.485Z,134.12346
2022-10-05T20:30:02.124Z,132.3792
2022-10-05T20:35:03.628Z,129.54217
2022-10-05T20:40:05.408Z,131.80488
2022-10-05T20:45:06.857Z,131.80488
2022-10-05T20:50:08.516Z,132.95706
2022-10-05T20:55:10.044Z,131.23404
2022-10-05T21:00:11.963Z,133.53846
2022-10-05T21:05:13.758Z,133.53846
2022-10-05T21:10:15.564Z,133.53846
2022-10-05T21:15:17.420Z,134.12346
2022-10-05T21:20:19.362Z,135.90031
2022-10-05T21:25:21.124Z,138.32177
2022-10-05T21:30:23.011Z,142.07074
2022-10-05T21:35:24.962Z,143.35275
2022-10-05T21:40:26.691Z,146.63158
2022-10-05T21:45:28.479Z,148.65116
2022-10-05T21:50:30.314Z,153.52381
2022-10-05T21:55:31.873Z,155.68385
2022-10-05T22:00:33.569Z,155.68385
2022-10-05T22:05:35.488Z,160.90141
2022-10-05T22:10:37.269Z,165.58273
2022-10-05T22:15:39.088Z,170.47059
2022-10-05T22:20:40.991Z,172.99628
2022-10-05T22:25:42.724Z,176.45283
2022-10-05T22:30:44.494Z,180.01533
2022-10-05T22:35:46.549Z,178.22053
2022-10-05T22:40:48.212Z,178.22053
2022-10-05T22:45:49.978Z,176.45283
2022-10-05T22:50:51.736Z,172.99628
2022-10-05T22:55:53.459Z,165.58273
2022-10-05T23:00:58.536Z,161.66784
2022-10-05T23:06:00.456Z,156.41379
2022-10-05T23:11:01.890Z,151.40741
2022-10-05T23:16:03.548Z,147.97351
2022-10-05T23:21:06.286Z,146.63158
2022-10-05T23:26:07.928Z,144.65147
2022-10-05T23:31:09.683Z,143.35275
2022-10-05T23:36:11.497Z,141.4359
2022-10-05T23:41:13.255Z,141.4359
2022-10-05T23:46:15.132Z,139.55556
2022-10-05T23:51:17.182Z,137.71069
2022-10-05T23:56:18.946Z,137.10345
